sensor_id;sensor_type;location;lat;lon;timestamp;pressure;altitude;pressure_sealevel;temperature;humidity
73171;BME280;61381;50.118;19.962;2023-02-01T00:03:04;97842.13;;;0.59;100.00
73171;BME280;61381;50.118;19.962;2023-02-01T00:08:06;97854.47;;;0.58;100.00
73171;BME280;61381;50.118;19.962;2023-02-01T00:13:07;97838.81;;;0.51;100.00
73171;BME280;61381;50.118;19.962;2023-02-01T00:18:08;97836.72;;;0.53;100.00
73171;BME280;61381;50.118;19.962;2023-02-01T00:23:11;97851.44;;;0.49;100.00
73171;BME280;61381;50.118;19.962;2023-02-01T00:28:12;97833.06;;;0.55;100.00
73171;BME280;61381;50.118;19.962;2023-02-01T00:33:13;97833.75;;;0.62;100.00
73171;BME280;61381;50.118;19.962;2023-02-01T00:38:15;97828.00;;;0.65;100.00
73171;BME280;61381;50.118;19.962;2023-02-01T00:43:16;97807.34;;;0.74;100.00
73171;BME280;61381;50.118;19.962;2023-02-01T00:48:18;97796.22;;;0.71;100.00
73171;BME280;61381;50.118;19.962;2023-02-01T00:53:20;97831.47;;;0.82;100.00
73171;BME280;61381;50.118;19.962;2023-02-01T00:58:21;97816.28;;;0.89;100.00
73171;BME280;61381;50.118;19.962;2023-02-01T01:03:22;97819.66;;;0.85;100.00
73171;BME280;61381;50.118;19.962;2023-02-01T01:08:25;97805.75;;;0.89;100.00
73171;BME280;61381;50.118;19.962;2023-02-01T01:13:26;97803.84;;;1.02;100.00
73171;BME280;61381;50.118;19.962;2023-02-01T01:18:27;97840.34;;;1.10;100.00
73171;BME280;61381;50.118;19.962;2023-02-01T01:23:30;97809.13;;;1.02;100.00
73171;BME280;61381;50.118;19.962;2023-02-01T01:28:31;97836.00;;;0.87;100.00
73171;BME280;61381;50.118;19.962;2023-02-01T01:33:32;97821.53;;;0.73;100.00
73171;BME280;61381;50.118;19.962;2023-02-01T01:38:35;97833.69;;;0.74;100.00
73171;BME280;61381;50.118;19.962;2023-02-01T01:43:48;97812.03;;;0.71;100.00
73171;BME280;61381;50.118;19.962;2023-02-01T01:48:53;97829.31;;;0.50;100.00
73171;BME280;61381;50.118;19.962;2023-02-01T01:54:02;97816.78;;;0.29;100.00
73171;BME280;61381;50.118;19.962;2023-02-01T01:59:04;97821.75;;;0.13;100.00
73171;BME280;61381;50.118;19.962;2023-02-01T02:04:06;97837.81;;;0.00;100.00
73171;BME280;61381;50.118;19.962;2023-02-01T02:09:08;97825.66;;;0.11;100.00
73171;BME280;61381;50.118;19.962;2023-02-01T02:14:12;97841.16;;;0.36;100.00
73171;BME280;61381;50.118;19.962;2023-02-01T02:25:01;97843.94;;;0.58;100.00
73171;BME280;61381;50.118;19.962;2023-02-01T02:35:45;97856.94;;;0.77;100.00
73171;BME280;61381;50.118;19.962;2023-02-01T02:40:59;97856.59;;;0.73;100.00
73171;BME280;61381;50.118;19.962;2023-02-01T02:46:03;97860.75;;;0.69;100.00
73171;BME280;61381;50.118;19.962;2023-02-01T02:51:11;97872.75;;;0.77;100.00
73171;BME280;61381;50.118;19.962;2023-02-01T02:56:14;97884.38;;;0.64;100.00
73171;BME280;61381;50.118;19.962;2023-02-01T03:01:16;97882.97;;;0.73;100.00
73171;BME280;61381;50.118;19.962;2023-02-01T03:06:18;97876.66;;;0.74;100.00
73171;BME280;61381;50.118;19.962;2023-02-01T03:11:20;97876.75;;;0.79;100.00
73171;BME280;61381;50.118;19.962;2023-02-01T03:16:24;97887.75;;;0.76;100.00
73171;BME280;61381;50.118;19.962;2023-02-01T03:21:31;97879.22;;;0.69;100.00
73171;BME280;61381;50.118;19.962;2023-02-01T03:26:37;97900.31;;;0.69;100.00
73171;BME280;61381;50.118;19.962;2023-02-01T03:31:39;97925.81;;;0.80;100.00
73171;BME280;61381;50.118;19.962;2023-02-01T03:36:42;97919.25;;;0.54;100.00
73171;BME280;61381;50.118;19.962;2023-02-01T03:41:50;97921.66;;;0.44;100.00
73171;BME280;61381;50.118;19.962;2023-02-01T03:46:54;97932.44;;;0.42;100.00
73171;BME280;61381;50.118;19.962;2023-02-01T03:51:58;97938.47;;;0.55;100.00
73171;BME280;61381;50.118;19.962;2023-02-01T03:57:03;97931.47;;;0.72;100.00
73171;BME280;61381;50.118;19.962;2023-02-01T04:02:06;97929.16;;;0.76;100.00
73171;BME280;61381;50.118;19.962;2023-02-01T04:07:08;97925.34;;;0.83;100.00
73171;BME280;61381;50.118;19.962;2023-02-01T04:12:09;97916.75;;;0.76;100.00
73171;BME280;61381;50.118;19.962;2023-02-01T04:17:10;97923.19;;;0.68;100.00
73171;BME280;61381;50.118;19.962;2023-02-01T04:22:13;97934.69;;;0.62;100.00
73171;BME280;61381;50.118;19.962;2023-02-01T04:27:14;97934.34;;;0.70;100.00
73171;BME280;61381;50.118;19.962;2023-02-01T04:32:15;97929.56;;;0.56;100.00
73171;BME280;61381;50.118;19.962;2023-02-01T04:37:18;97930.34;;;0.56;100.00
73171;BME280;61381;50.118;19.962;2023-02-01T04:42:19;97938.56;;;0.60;100.00
73171;BME280;61381;50.118;19.962;2023-02-01T04:47:20;97951.19;;;0.58;100.00
73171;BME280;61381;50.118;19.962;2023-02-01T04:52:23;97947.75;;;0.57;100.00
73171;BME280;61381;50.118;19.962;2023-02-01T04:57:24;97949.13;;;0.60;100.00
73171;BME280;61381;50.118;19.962;2023-02-01T05:02:25;97944.53;;;0.55;100.00
73171;BME280;61381;50.118;19.962;2023-02-01T05:07:28;97966.91;;;0.52;100.00
73171;BME280;61381;50.118;19.962;2023-02-01T05:12:29;97947.41;;;0.53;100.00
73171;BME280;61381;50.118;19.962;2023-02-01T05:17:30;97942.03;;;0.60;100.00
73171;BME280;61381;50.118;19.962;2023-02-01T05:22:33;97952.56;;;0.60;100.00
73171;BME280;61381;50.118;19.962;2023-02-01T05:27:34;97944.66;;;0.60;100.00
73171;BME280;61381;50.118;19.962;2023-02-01T05:32:35;97955.75;;;0.62;100.00
73171;BME280;61381;50.118;19.962;2023-02-01T05:37:38;97951.50;;;0.61;100.00
73171;BME280;61381;50.118;19.962;2023-02-01T05:42:39;97955.75;;;0.62;100.00
73171;BME280;61381;50.118;19.962;2023-02-01T05:47:40;97960.81;;;0.64;100.00
73171;BME280;61381;50.118;19.962;2023-02-01T05:52:43;97939.25;;;0.67;100.00
73171;BME280;61381;50.118;19.962;2023-02-01T05:57:44;97943.38;;;0.63;100.00
73171;BME280;61381;50.118;19.962;2023-02-01T06:02:45;97945.22;;;0.62;100.00
73171;BME280;61381;50.118;19.962;2023-02-01T06:07:47;97950.25;;;0.64;100.00
73171;BME280;61381;50.118;19.962;2023-02-01T06:12:48;97944.69;;;0.48;100.00
73171;BME280;61381;50.118;19.962;2023-02-01T06:17:50;97940.66;;;0.46;100.00
73171;BME280;61381;50.118;19.962;2023-02-01T06:22:52;97942.75;;;0.44;100.00
73171;BME280;61381;50.118;19.962;2023-02-01T06:27:53;97942.84;;;0.49;100.00
73171;BME280;61381;50.118;19.962;2023-02-01T06:32:54;97948.56;;;0.46;100.00
73171;BME280;61381;50.118;19.962;2023-02-01T06:37:57;97951.09;;;0.52;100.00
73171;BME280;61381;50.118;19.962;2023-02-01T06:42:58;97944.53;;;0.67;100.00
73171;BME280;61381;50.118;19.962;2023-02-01T06:47:59;97946.69;;;0.70;100.00
73171;BME280;61381;50.118;19.962;2023-02-01T06:53:02;97943.00;;;0.83;100.00
73171;BME280;61381;50.118;19.962;2023-02-01T06:58:03;97949.31;;;0.82;100.00
73171;BME280;61381;50.118;19.962;2023-02-01T07:03:04;97947.91;;;0.91;100.00
73171;BME280;61381;50.118;19.962;2023-02-01T07:08:06;97949.13;;;1.00;100.00
73171;BME280;61381;50.118;19.962;2023-02-01T07:13:08;97946.44;;;1.12;100.00
73171;BME280;61381;50.118;19.962;2023-02-01T07:18:09;97939.16;;;1.19;100.00
73171;BME280;61381;50.118;19.962;2023-02-01T07:23:11;97936.28;;;1.21;100.00
73171;BME280;61381;50.118;19.962;2023-02-01T07:28:12;97930.94;;;1.16;100.00
73171;BME280;61381;50.118;19.962;2023-02-01T07:33:13;97923.03;;;1.16;100.00
73171;BME280;61381;50.118;19.962;2023-02-01T07:38:16;97929.44;;;1.20;100.00
73171;BME280;61381;50.118;19.962;2023-02-01T07:43:17;97915.22;;;1.38;100.00
73171;BME280;61381;50.118;19.962;2023-02-01T07:48:19;97922.44;;;1.42;100.00
73171;BME280;61381;50.118;19.962;2023-02-01T07:53:21;97917.31;;;1.53;100.00
73171;BME280;61381;50.118;19.962;2023-02-01T07:58:22;97921.31;;;1.55;100.00
73171;BME280;61381;50.118;19.962;2023-02-01T08:03:24;97918.34;;;1.69;100.00
73171;BME280;61381;50.118;19.962;2023-02-01T08:08:26;97919.63;;;1.83;100.00
73171;BME280;61381;50.118;19.962;2023-02-01T08:13:28;97914.88;;;1.85;100.00
73171;BME280;61381;50.118;19.962;2023-02-01T08:18:30;97913.84;;;1.86;100.00
73171;BME280;61381;50.118;19.962;2023-02-01T08:23:34;97916.06;;;1.94;100.00
73171;BME280;61381;50.118;19.962;2023-02-01T08:28:36;97913.28;;;2.01;100.00
73171;BME280;61381;50.118;19.962;2023-02-01T08:33:37;97910.78;;;2.11;100.00
73171;BME280;61381;50.118;19.962;2023-02-01T08:38:40;97915.84;;;2.13;100.00
73171;BME280;61381;50.118;19.962;2023-02-01T08:43:42;97924.25;;;2.10;100.00
73171;BME280;61381;50.118;19.962;2023-02-01T08:48:45;97919.50;;;2.12;100.00
73171;BME280;61381;50.118;19.962;2023-02-01T08:53:48;97930.38;;;2.16;100.00
73171;BME280;61381;50.118;19.962;2023-02-01T08:58:49;97931.19;;;2.16;100.00
73171;BME280;61381;50.118;19.962;2023-02-01T09:03:50;97929.84;;;2.36;100.00
73171;BME280;61381;50.118;19.962;2023-02-01T09:08:53;97917.22;;;2.38;100.00
73171;BME280;61381;50.118;19.962;2023-02-01T09:13:54;97917.31;;;2.48;100.00
73171;BME280;61381;50.118;19.962;2023-02-01T09:18:55;97909.03;;;2.61;100.00
73171;BME280;61381;50.118;19.962;2023-02-01T09:23:58;97901.91;;;2.40;100.00
73171;BME280;61381;50.118;19.962;2023-02-01T09:29:00;97910.06;;;2.82;100.00
73171;BME280;61381;50.118;19.962;2023-02-01T09:34:01;97894.38;;;3.03;100.00
73171;BME280;61381;50.118;19.962;2023-02-01T09:39:03;97904.13;;;2.97;100.00
73171;BME280;61381;50.118;19.962;2023-02-01T09:44:12;97888.44;;;2.91;100.00
73171;BME280;61381;50.118;19.962;2023-02-01T09:49:22;97888.09;;;3.09;100.00
73171;BME280;61381;50.118;19.962;2023-02-01T09:54:33;97889.22;;;3.18;100.00
73171;BME280;61381;50.118;19.962;2023-02-01T09:59:41;97890.81;;;3.14;100.00
73171;BME280;61381;50.118;19.962;2023-02-01T10:04:43;97881.75;;;3.37;100.00
73171;BME280;61381;50.118;19.962;2023-02-01T10:09:52;97879.56;;;3.29;100.00
73171;BME280;61381;50.118;19.962;2023-02-01T10:15:03;97883.53;;;3.32;100.00
73171;BME280;61381;50.118;19.962;2023-02-01T10:20:16;97890.16;;;3.02;100.00
73171;BME280;61381;50.118;19.962;2023-02-01T10:25:23;97873.53;;;3.07;100.00
73171;BME280;61381;50.118;19.962;2023-02-01T10:30:30;97877.91;;;3.23;100.00
73171;BME280;61381;50.118;19.962;2023-02-01T10:35:36;97865.72;;;3.22;100.00
73171;BME280;61381;50.118;19.962;2023-02-01T10:40:39;97871.53;;;2.92;100.00
73171;BME280;61381;50.118;19.962;2023-02-01T10:45:40;97878.47;;;2.98;100.00
73171;BME280;61381;50.118;19.962;2023-02-01T10:50:48;97866.28;;;2.97;100.00
73171;BME280;61381;50.118;19.962;2023-02-01T10:55:54;97863.50;;;2.81;100.00
73171;BME280;61381;50.118;19.962;2023-02-01T11:00:57;97865.59;;;2.79;100.00
73171;BME280;61381;50.118;19.962;2023-02-01T11:06:00;97869.81;;;2.53;100.00
73171;BME280;61381;50.118;19.962;2023-02-01T11:11:04;97859.00;;;2.55;100.00
73171;BME280;61381;50.118;19.962;2023-02-01T11:16:06;97851.84;;;2.55;100.00
73171;BME280;61381;50.118;19.962;2023-02-01T11:21:11;97850.06;;;2.61;100.00
73171;BME280;61381;50.118;19.962;2023-02-01T11:26:19;97839.50;;;2.61;100.00
73171;BME280;61381;50.118;19.962;2023-02-01T11:31:22;97844.16;;;2.54;100.00
73171;BME280;61381;50.118;19.962;2023-02-01T11:36:26;97833.63;;;2.59;100.00
73171;BME280;61381;50.118;19.962;2023-02-01T11:41:29;97814.84;;;2.55;100.00
73171;BME280;61381;50.118;19.962;2023-02-01T11:46:32;97833.41;;;2.38;100.00
73171;BME280;61381;50.118;19.962;2023-02-01T11:51:46;97807.09;;;2.48;100.00
73171;BME280;61381;50.118;19.962;2023-02-01T11:57:00;97819.47;;;2.43;100.00
73171;BME280;61381;50.118;19.962;2023-02-01T12:02:08;97801.16;;;2.36;100.00
73171;BME280;61381;50.118;19.962;2023-02-01T12:07:16;97804.38;;;2.16;100.00
73171;BME280;61381;50.118;19.962;2023-02-01T12:12:26;97801.53;;;2.23;100.00
73171;BME280;61381;50.118;19.962;2023-02-01T12:18:11;97788.34;;;2.50;100.00
73171;BME280;61381;50.118;19.962;2023-02-01T12:23:24;97776.56;;;2.36;100.00
73171;BME280;61381;50.118;19.962;2023-02-01T12:28:57;97780.03;;;2.36;100.00
73171;BME280;61381;50.118;19.962;2023-02-01T12:34:17;97769.44;;;2.36;100.00
73171;BME280;61381;50.118;19.962;2023-02-01T12:39:25;97763.22;;;2.47;100.00
73171;BME280;61381;50.118;19.962;2023-02-01T12:44:35;97767.63;;;2.42;100.00
73171;BME280;61381;50.118;19.962;2023-02-01T12:49:47;97750.84;;;2.53;100.00
73171;BME280;61381;50.118;19.962;2023-02-01T12:54:54;97760.34;;;2.54;100.00
73171;BME280;61381;50.118;19.962;2023-02-01T13:00:04;97751.88;;;2.52;100.00
73171;BME280;61381;50.118;19.962;2023-02-01T13:05:13;97754.75;;;2.45;100.00
73171;BME280;61381;50.118;19.962;2023-02-01T13:10:21;97753.09;;;2.39;100.00
73171;BME280;61381;50.118;19.962;2023-02-01T13:15:28;97759.91;;;2.35;100.00
73171;BME280;61381;50.118;19.962;2023-02-01T13:20:34;97758.13;;;2.41;100.00
73171;BME280;61381;50.118;19.962;2023-02-01T13:25:41;97746.88;;;2.56;100.00
73171;BME280;61381;50.118;19.962;2023-02-01T13:36:41;97738.13;;;2.50;100.00
73171;BME280;61381;50.118;19.962;2023-02-01T13:41:52;97734.09;;;2.42;100.00
73171;BME280;61381;50.118;19.962;2023-02-01T13:46:58;97743.06;;;2.41;100.00
73171;BME280;61381;50.118;19.962;2023-02-01T13:52:00;97738.41;;;2.26;100.00
73171;BME280;61381;50.118;19.962;2023-02-01T13:57:02;97740.75;;;2.23;100.00
73171;BME280;61381;50.118;19.962;2023-02-01T14:02:37;97739.22;;;2.27;100.00
73171;BME280;61381;50.118;19.962;2023-02-01T14:08:02;97723.72;;;2.36;100.00
73171;BME280;61381;50.118;19.962;2023-02-01T14:13:05;97718.66;;;2.34;100.00
73171;BME280;61381;50.118;19.962;2023-02-01T14:23:59;97722.66;;;2.37;100.00
73171;BME280;61381;50.118;19.962;2023-02-01T14:29:08;97712.94;;;2.42;100.00
73171;BME280;61381;50.118;19.962;2023-02-01T14:34:21;97700.06;;;2.51;100.00
73171;BME280;61381;50.118;19.962;2023-02-01T14:39:31;97701.41;;;2.26;100.00
73171;BME280;61381;50.118;19.962;2023-02-01T14:44:35;97695.50;;;2.14;100.00
73171;BME280;61381;50.118;19.962;2023-02-01T14:49:41;97715.53;;;2.10;100.00
73171;BME280;61381;50.118;19.962;2023-02-01T14:54:46;97695.09;;;2.00;100.00
73171;BME280;61381;50.118;19.962;2023-02-01T14:59:57;97703.47;;;1.92;100.00
73171;BME280;61381;50.118;19.962;2023-02-01T15:05:00;97709.91;;;1.79;100.00
73171;BME280;61381;50.118;19.962;2023-02-01T15:10:03;97721.94;;;1.70;100.00
73171;BME280;61381;50.118;19.962;2023-02-01T15:15:13;97719.88;;;1.33;100.00
73171;BME280;61381;50.118;19.962;2023-02-01T15:20:16;97723.28;;;1.11;100.00
73171;BME280;61381;50.118;19.962;2023-02-01T15:25:21;97721.13;;;0.91;100.00
73171;BME280;61381;50.118;19.962;2023-02-01T15:30:25;97726.41;;;0.74;100.00
73171;BME280;61381;50.118;19.962;2023-02-01T15:35:38;97718.91;;;0.66;100.00
73171;BME280;61381;50.118;19.962;2023-02-01T15:40:54;97730.31;;;0.55;100.00
73171;BME280;61381;50.118;19.962;2023-02-01T15:45:57;97736.59;;;0.53;100.00
73171;BME280;61381;50.118;19.962;2023-02-01T15:50:59;97720.47;;;0.50;100.00
73171;BME280;61381;50.118;19.962;2023-02-01T15:56:04;97736.28;;;0.50;100.00
73171;BME280;61381;50.118;19.962;2023-02-01T16:01:05;97737.66;;;0.52;100.00
73171;BME280;61381;50.118;19.962;2023-02-01T16:06:08;97744.66;;;0.47;100.00
73171;BME280;61381;50.118;19.962;2023-02-01T16:11:26;97741.41;;;0.57;100.00
73171;BME280;61381;50.118;19.962;2023-02-01T16:16:28;97752.53;;;0.59;100.00
73171;BME280;61381;50.118;19.962;2023-02-01T16:21:29;97742.72;;;0.71;100.00
73171;BME280;61381;50.118;19.962;2023-02-01T16:26:33;97758.34;;;0.78;100.00
73171;BME280;61381;50.118;19.962;2023-02-01T16:31:36;97761.22;;;0.76;100.00
73171;BME280;61381;50.118;19.962;2023-02-01T16:36:38;97765.41;;;0.72;100.00
73171;BME280;61381;50.118;19.962;2023-02-01T16:41:41;97790.56;;;0.80;100.00
73171;BME280;61381;50.118;19.962;2023-02-01T16:46:44;97790.09;;;0.83;100.00
73171;BME280;61381;50.118;19.962;2023-02-01T16:51:47;97791.53;;;0.91;100.00
73171;BME280;61381;50.118;19.962;2023-02-01T16:56:50;97808.38;;;0.89;100.00
73171;BME280;61381;50.118;19.962;2023-02-01T17:01:51;97802.47;;;0.99;100.00
73171;BME280;61381;50.118;19.962;2023-02-01T17:06:52;97803.53;;;0.98;100.00
73171;BME280;61381;50.118;19.962;2023-02-01T17:11:54;97798.38;;;0.92;100.00
73171;BME280;61381;50.118;19.962;2023-02-01T17:16:56;97807.72;;;0.82;100.00
73171;BME280;61381;50.118;19.962;2023-02-01T17:21:57;97804.31;;;0.82;100.00
73171;BME280;61381;50.118;19.962;2023-02-01T17:26:59;97808.22;;;0.96;100.00
73171;BME280;61381;50.118;19.962;2023-02-01T17:32:01;97817.97;;;0.96;100.00
73171;BME280;61381;50.118;19.962;2023-02-01T17:37:05;97815.09;;;0.97;100.00
73171;BME280;61381;50.118;19.962;2023-02-01T17:42:11;97809.66;;;1.04;100.00
73171;BME280;61381;50.118;19.962;2023-02-01T17:47:12;97817.75;;;1.14;100.00
73171;BME280;61381;50.118;19.962;2023-02-01T17:52:16;97839.13;;;0.84;100.00
73171;BME280;61381;50.118;19.962;2023-02-01T17:57:18;97822.63;;;0.60;100.00
73171;BME280;61381;50.118;19.962;2023-02-01T18:02:21;97817.53;;;0.41;100.00
73171;BME280;61381;50.118;19.962;2023-02-01T18:07:22;97793.91;;;0.29;100.00
73171;BME280;61381;50.118;19.962;2023-02-01T18:12:32;97790.31;;;0.35;100.00
73171;BME280;61381;50.118;19.962;2023-02-01T18:17:33;97797.59;;;0.45;100.00
73171;BME280;61381;50.118;19.962;2023-02-01T18:22:34;97805.06;;;0.65;100.00
73171;BME280;61381;50.118;19.962;2023-02-01T18:27:37;97782.66;;;0.80;100.00
73171;BME280;61381;50.118;19.962;2023-02-01T18:32:38;97783.28;;;0.87;100.00
73171;BME280;61381;50.118;19.962;2023-02-01T18:37:39;97772.03;;;0.92;100.00
73171;BME280;61381;50.118;19.962;2023-02-01T18:42:42;97782.56;;;0.92;100.00
73171;BME280;61381;50.118;19.962;2023-02-01T18:47:43;97777.53;;;0.90;100.00
73171;BME280;61381;50.118;19.962;2023-02-01T18:52:45;97780.41;;;0.88;100.00
73171;BME280;61381;50.118;19.962;2023-02-01T18:57:47;97783.28;;;0.87;100.00
73171;BME280;61381;50.118;19.962;2023-02-01T19:02:49;97777.53;;;0.90;100.00
73171;BME280;61381;50.118;19.962;2023-02-01T19:07:50;97759.25;;;0.83;100.00
73171;BME280;61381;50.118;19.962;2023-02-01T19:12:52;97753.31;;;0.76;100.00
73171;BME280;61381;50.118;19.962;2023-02-01T19:17:54;97750.69;;;0.76;100.00
73171;BME280;61381;50.118;19.962;2023-02-01T19:22:56;97743.38;;;0.78;100.00
73171;BME280;61381;50.118;19.962;2023-02-01T19:27:58;97743.19;;;0.85;100.00
73171;BME280;61381;50.118;19.962;2023-02-01T19:32:59;97744.56;;;0.87;100.00
73171;BME280;61381;50.118;19.962;2023-02-01T19:38:00;97746.38;;;0.87;100.00
73171;BME280;61381;50.118;19.962;2023-02-01T19:43:03;97743.19;;;0.85;100.00
73171;BME280;61381;50.118;19.962;2023-02-01T19:48:04;97744.88;;;0.91;100.00
73171;BME280;61381;50.118;19.962;2023-02-01T19:53:06;97735.59;;;0.88;100.00
73171;BME280;61381;50.118;19.962;2023-02-01T19:58:08;97729.53;;;0.88;100.00
73171;BME280;61381;50.118;19.962;2023-02-01T20:03:09;97733.19;;;0.87;100.00
73171;BME280;61381;50.118;19.962;2023-02-01T20:08:10;97719.78;;;0.88;100.00
73171;BME280;61381;50.118;19.962;2023-02-01T20:13:13;97732.72;;;0.90;100.00
73171;BME280;61381;50.118;19.962;2023-02-01T20:18:15;97726.97;;;0.93;100.00
73171;BME280;61381;50.118;19.962;2023-02-01T20:23:16;97731.38;;;0.87;100.00
73171;BME280;61381;50.118;19.962;2023-02-01T20:28:18;97719.53;;;0.90;100.00
73171;BME280;61381;50.118;19.962;2023-02-01T20:33:19;97702.22;;;0.77;100.00
73171;BME280;61381;50.118;19.962;2023-02-01T20:38:21;97713.72;;;0.71;100.00
73171;BME280;61381;50.118;19.962;2023-02-01T20:43:23;97711.22;;;0.64;100.00
73171;BME280;61381;50.118;19.962;2023-02-01T20:48:24;97705.88;;;0.76;100.00
73171;BME280;61381;50.118;19.962;2023-02-01T20:53:26;97697.50;;;0.79;100.00
73171;BME280;61381;50.118;19.962;2023-02-01T20:58:29;97696.47;;;0.80;100.00
73171;BME280;61381;50.118;19.962;2023-02-01T21:03:30;97692.22;;;0.79;100.00
73171;BME280;61381;50.118;19.962;2023-02-01T21:08:32;97679.28;;;0.78;100.00
73171;BME280;61381;50.118;19.962;2023-02-01T21:13:35;97672.19;;;0.78;100.00
73171;BME280;61381;50.118;19.962;2023-02-01T21:18:37;97664.59;;;0.82;100.00
73171;BME280;61381;50.118;19.962;2023-02-01T21:23:38;97648.69;;;0.94;100.00
73171;BME280;61381;50.118;19.962;2023-02-01T21:28:41;97651.88;;;0.96;100.00
73171;BME280;61381;50.118;19.962;2023-02-01T21:33:42;97639.94;;;0.93;100.00
73171;BME280;61381;50.118;19.962;2023-02-01T21:38:43;97633.88;;;0.93;100.00
73171;BME280;61381;50.118;19.962;2023-02-01T21:43:46;97633.41;;;0.96;100.00
73171;BME280;61381;50.118;19.962;2023-02-01T21:48:47;97619.00;;;1.03;100.00
73171;BME280;61381;50.118;19.962;2023-02-01T21:53:48;97624.09;;;1.10;100.00
73171;BME280;61381;50.118;19.962;2023-02-01T21:58:51;97612.16;;;1.24;100.00
73171;BME280;61381;50.118;19.962;2023-02-01T22:03:52;97619.38;;;1.34;100.00
73171;BME280;61381;50.118;19.962;2023-02-01T22:08:53;97602.63;;;1.23;100.00
73171;BME280;61381;50.118;19.962;2023-02-01T22:13:56;97613.47;;;1.05;100.00
73171;BME280;61381;50.118;19.962;2023-02-01T22:18:57;97606.97;;;0.91;100.00
73171;BME280;61381;50.118;19.962;2023-02-01T22:23:58;97604.19;;;0.80;100.00
73171;BME280;61381;50.118;19.962;2023-02-01T22:29:01;97599.00;;;0.68;100.00
73171;BME280;61381;50.118;19.962;2023-02-01T22:34:02;97591.13;;;0.68;100.00
73171;BME280;61381;50.118;19.962;2023-02-01T22:39:03;97581.53;;;0.62;100.00
73171;BME280;61381;50.118;19.962;2023-02-01T22:44:06;97576.44;;;0.56;100.00
73171;BME280;61381;50.118;19.962;2023-02-01T22:49:07;97585.31;;;0.49;100.00
73171;BME280;61381;50.118;19.962;2023-02-01T22:54:14;97577.41;;;0.49;100.00
73171;BME280;61381;50.118;19.962;2023-02-01T22:59:18;97569.56;;;0.55;100.00
73171;BME280;61381;50.118;19.962;2023-02-01T23:04:19;97559.03;;;0.55;100.00
73171;BME280;61381;50.118;19.962;2023-02-01T23:09:22;97566.50;;;0.63;100.00
73171;BME280;61381;50.118;19.962;2023-02-01T23:14:25;97556.31;;;0.66;100.00
73171;BME280;61381;50.118;19.962;2023-02-01T23:19:26;97554.91;;;0.81;100.00
73171;BME280;61381;50.118;19.962;2023-02-01T23:24:27;97541.41;;;0.77;100.00
73171;BME280;61381;50.118;19.962;2023-02-01T23:29:29;97547.31;;;0.84;100.00
73171;BME280;61381;50.118;19.962;2023-02-01T23:34:30;97552.69;;;0.95;100.00
73171;BME280;61381;50.118;19.962;2023-02-01T23:39:32;97554.53;;;1.16;100.00
73171;BME280;61381;50.118;19.962;2023-02-01T23:44:34;97553.00;;;1.20;100.00
73171;BME280;61381;50.118;19.962;2023-02-01T23:49:35;97557.78;;;1.23;100.00
73171;BME280;61381;50.118;19.962;2023-02-01T23:54:36;97547.47;;;1.22;100.00
73171;BME280;61381;50.118;19.962;2023-02-01T23:59:39;97556.13;;;1.17;100.00
